createdAt,value
2018-08-13T00:01:18.055Z,63.80
2018-08-13T00:03:46.498Z,64.00
2018-08-13T00:06:15.138Z,64.00
2018-08-13T00:08:43.550Z,64.50
2018-08-13T00:11:12.003Z,65.10
2018-08-13T00:13:40.463Z,65.50
2018-08-13T00:16:08.951Z,64.50
2018-08-13T00:18:37.391Z,65.50
2018-08-13T00:21:05.863Z,64.70
2018-08-13T00:23:34.311Z,64.20
2018-08-13T00:26:02.846Z,64.20
2018-08-13T00:28:31.267Z,64.10
2018-08-13T00:30:59.883Z,63.70
2018-08-13T00:33:29.214Z,63.90
2018-08-13T00:35:58.544Z,64.10
2018-08-13T00:38:27.089Z,64.00
2018-08-13T00:40:55.550Z,64.00
2018-08-13T00:43:24.059Z,64.30
2018-08-13T00:45:52.499Z,64.70
2018-08-13T00:48:20.907Z,64.70
2018-08-13T00:50:49.763Z,64.60
2018-08-13T00:53:18.134Z,64.30
2018-08-13T00:55:46.480Z,64.70
2018-08-13T00:58:14.877Z,64.70
2018-08-13T01:00:43.219Z,64.70
2018-08-13T01:03:11.599Z,64.90
2018-08-13T01:05:39.970Z,64.50
2018-08-13T01:08:08.363Z,65.00
2018-08-13T01:10:36.731Z,64.50
2018-08-13T01:13:05.220Z,64.70
2018-08-13T01:15:33.591Z,64.90
2018-08-13T01:18:08.439Z,64.90
2018-08-13T01:20:36.786Z,64.40
2018-08-13T01:23:05.167Z,64.80
2018-08-13T01:25:33.531Z,64.90
2018-08-13T01:28:01.905Z,64.90
2018-08-13T01:30:30.278Z,65.00
2018-08-13T01:32:58.673Z,65.10
2018-08-13T01:35:27.047Z,65.30
2018-08-13T01:37:55.414Z,65.20
2018-08-13T01:40:23.743Z,65.50
2018-08-13T01:42:52.122Z,65.40
2018-08-13T01:45:20.495Z,65.60
2018-08-13T01:47:48.950Z,65.40
2018-08-13T01:50:17.378Z,65.70
2018-08-13T01:52:45.828Z,65.70
2018-08-13T01:55:14.332Z,65.40
2018-08-13T01:57:42.762Z,65.40
2018-08-13T02:00:14.987Z,65.60
2018-08-13T02:02:43.456Z,65.80
2018-08-13T02:05:11.927Z,65.40
2018-08-13T02:07:40.348Z,65.50
2018-08-13T02:10:10.710Z,65.80
2018-08-13T02:12:39.478Z,66.00
2018-08-13T02:15:08.059Z,65.70
2018-08-13T02:17:36.595Z,65.80
2018-08-13T02:20:06.847Z,65.90
2018-08-13T02:22:35.470Z,66.40
2018-08-13T02:25:04.550Z,66.00
2018-08-13T02:27:32.987Z,65.80
2018-08-13T02:30:01.418Z,65.90
2018-08-13T02:32:29.847Z,66.00
2018-08-13T02:34:58.316Z,66.20
2018-08-13T02:37:26.779Z,66.10
2018-08-13T02:39:55.240Z,66.10
2018-08-13T02:42:23.706Z,65.90
2018-08-13T02:44:52.132Z,65.70
2018-08-13T02:47:20.615Z,65.80
2018-08-13T02:49:49.007Z,65.60
2018-08-13T02:54:52.250Z,65.90
2018-08-13T02:57:20.671Z,65.90
2018-08-13T02:59:49.100Z,66.00
2018-08-13T03:02:17.522Z,66.00
2018-08-13T03:04:45.999Z,66.00
2018-08-13T03:07:14.395Z,65.80
2018-08-13T03:09:42.847Z,65.80
2018-08-13T03:12:11.256Z,65.90
2018-08-13T03:14:39.699Z,65.80
2018-08-13T03:17:08.107Z,65.80
2018-08-13T03:19:36.560Z,65.50
2018-08-13T03:22:05.027Z,65.50
2018-08-13T03:27:08.227Z,65.50
2018-08-13T03:29:36.682Z,65.80
2018-08-13T03:32:05.135Z,65.40
2018-08-13T03:34:33.575Z,65.80
2018-08-13T03:37:02.003Z,65.90
2018-08-13T03:39:30.435Z,65.80
2018-08-13T03:41:58.858Z,65.80
2018-08-13T03:44:27.451Z,65.40
2018-08-13T03:46:55.847Z,65.70
2018-08-13T03:49:24.211Z,65.70
2018-08-13T03:51:52.638Z,66.20
2018-08-13T03:54:21.048Z,66.20
2018-08-13T03:56:49.375Z,65.80
2018-08-13T03:59:17.735Z,66.00
2018-08-13T04:01:46.090Z,66.70
2018-08-13T04:04:14.450Z,67.20
2018-08-13T04:06:42.928Z,68.10
2018-08-13T04:09:11.308Z,67.90
2018-08-13T04:11:39.888Z,67.10
2018-08-13T04:14:09.019Z,67.40
2018-08-13T04:16:37.887Z,67.90
2018-08-13T04:19:06.959Z,69.20
2018-08-13T04:21:35.291Z,69.50
2018-08-13T04:24:03.666Z,70.80
2018-08-13T04:26:32.011Z,69.70
2018-08-13T04:29:00.375Z,73.30
2018-08-13T04:31:28.702Z,71.80
2018-08-13T04:33:57.071Z,72.70
2018-08-13T04:36:25.406Z,74.70
2018-08-13T04:38:53.772Z,77.10
2018-08-13T04:41:23.039Z,74.90
2018-08-13T04:43:53.179Z,75.40
2018-08-13T04:46:22.944Z,76.80
2018-08-13T04:48:53.143Z,77.70
2018-08-13T04:51:22.116Z,77.50
2018-08-13T04:53:52.216Z,79.40
2018-08-13T04:56:22.239Z,81.00
2018-08-13T04:58:52.335Z,80.00
2018-08-13T05:01:22.359Z,79.20
2018-08-13T05:03:52.228Z,80.90
2018-08-13T05:06:22.098Z,82.00
2018-08-13T05:08:52.262Z,80.60
2018-08-13T05:11:21.433Z,80.40
2018-08-13T05:13:49.879Z,82.00
2018-08-13T05:16:18.237Z,82.80
2018-08-13T05:18:46.646Z,86.30
2018-08-13T05:21:15.040Z,86.00
2018-08-13T05:23:43.973Z,88.30
2018-08-13T05:26:13.315Z,87.80
2018-08-13T05:28:41.647Z,88.00
2018-08-13T05:31:09.999Z,86.90
2018-08-13T05:33:38.342Z,87.30
2018-08-13T05:36:06.911Z,88.90
2018-08-13T05:38:35.258Z,89.60
2018-08-13T05:41:03.652Z,90.10
2018-08-13T05:43:32.055Z,89.30
2018-08-13T05:46:00.516Z,89.80
2018-08-13T05:48:28.927Z,90.10
2018-08-13T05:50:57.299Z,88.30
2018-08-13T05:53:25.644Z,88.90
2018-08-13T05:55:54.014Z,90.40
2018-08-13T05:58:22.342Z,90.60
2018-08-13T06:00:50.710Z,88.80
2018-08-13T06:03:19.065Z,89.00
2018-08-13T06:05:47.450Z,88.80
2018-08-13T06:08:15.819Z,90.20
2018-08-13T06:10:44.176Z,88.60
2018-08-13T06:13:18.915Z,88.90
2018-08-13T06:15:47.298Z,91.00
2018-08-13T06:18:15.646Z,90.50
2018-08-13T06:20:44.005Z,92.20
2018-08-13T06:23:12.347Z,92.80
2018-08-13T06:25:40.724Z,93.80
2018-08-13T06:28:09.167Z,93.60
2018-08-13T06:30:37.519Z,93.80
2018-08-13T06:33:06.379Z,94.50
2018-08-13T06:35:34.771Z,94.50
2018-08-13T06:38:03.143Z,94.10
2018-08-13T06:40:31.487Z,93.60
2018-08-13T06:42:59.822Z,93.50
2018-08-13T06:45:28.159Z,93.00
2018-08-13T06:47:56.576Z,93.50
2018-08-13T06:50:25.016Z,94.00
2018-08-13T06:52:53.455Z,94.40
2018-08-13T06:55:21.900Z,94.10
2018-08-13T06:57:50.342Z,94.30
2018-08-13T07:00:18.805Z,94.30
2018-08-13T07:02:47.211Z,93.80
2018-08-13T07:05:15.691Z,93.90
2018-08-13T07:07:44.098Z,94.80
2018-08-13T07:10:13.813Z,94.60
2018-08-13T07:12:44.250Z,94.00
2018-08-13T07:15:13.495Z,94.20
2018-08-13T07:17:41.950Z,92.90
2018-08-13T07:20:13.475Z,94.30
2018-08-13T07:22:42.188Z,94.30
2018-08-13T07:25:10.951Z,94.50
2018-08-13T07:27:40.359Z,94.80
2018-08-13T07:30:10.819Z,94.70
2018-08-13T07:32:39.294Z,93.90
2018-08-13T07:35:08.202Z,94.80
2018-08-13T07:37:36.625Z,94.10
2018-08-13T07:40:07.147Z,94.10
2018-08-13T07:42:35.561Z,94.00
2018-08-13T07:45:04.971Z,94.20
2018-08-13T07:47:33.366Z,93.50
2018-08-13T07:50:01.740Z,94.00
2018-08-13T07:52:30.087Z,93.80
2018-08-13T07:54:58.526Z,93.60
2018-08-13T07:57:26.897Z,93.20
2018-08-13T07:59:55.282Z,93.80
2018-08-13T08:02:23.619Z,93.90
2018-08-13T08:04:51.991Z,93.70
2018-08-13T08:07:20.366Z,93.80
2018-08-13T08:09:48.752Z,94.50
2018-08-13T08:12:17.198Z,94.20
2018-08-13T08:14:45.679Z,94.20
2018-08-13T08:17:13.986Z,92.70
2018-08-13T08:19:42.355Z,93.20
2018-08-13T08:22:10.735Z,93.40
2018-08-13T08:24:39.356Z,93.70
2018-08-13T08:27:08.196Z,94.10
2018-08-13T08:29:36.566Z,93.70
2018-08-13T08:32:04.927Z,93.50
2018-08-13T08:34:33.343Z,93.80
2018-08-13T08:37:01.710Z,93.90
2018-08-13T08:39:30.056Z,94.10
2018-08-13T08:41:58.491Z,94.70
2018-08-13T08:44:26.853Z,94.50
2018-08-13T08:46:55.417Z,94.60
2018-08-13T08:49:23.875Z,94.70
2018-08-13T08:51:52.335Z,94.30
2018-08-13T08:54:20.767Z,94.20
2018-08-13T08:56:49.207Z,93.50
2018-08-13T08:59:17.639Z,93.10
2018-08-13T09:01:46.107Z,94.10
2018-08-13T09:04:14.559Z,94.30
2018-08-13T09:06:43.055Z,94.50
2018-08-13T09:09:13.195Z,94.50
2018-08-13T09:11:42.342Z,94.00
2018-08-13T09:14:10.910Z,93.90
2018-08-13T09:16:40.664Z,93.70
2018-08-13T09:19:20.571Z,93.50
2018-08-13T09:21:51.631Z,93.60
2018-08-13T09:24:31.409Z,93.40
2018-08-13T09:27:11.324Z,93.30
2018-08-13T09:29:51.092Z,91.80
2018-08-13T09:33:29.507Z,92.60
2018-08-13T09:35:57.995Z,91.90
2018-08-13T09:38:26.447Z,92.20
2018-08-13T09:41:01.368Z,91.80
2018-08-13T09:43:29.790Z,92.40
2018-08-13T09:45:58.208Z,91.60
2018-08-13T09:48:26.670Z,92.20
2018-08-13T09:50:55.227Z,91.30
2018-08-13T09:53:23.655Z,91.10
2018-08-13T09:55:52.102Z,90.90
2018-08-13T09:58:20.514Z,90.80
2018-08-13T10:00:54.356Z,90.40
2018-08-13T10:03:22.807Z,91.20
2018-08-13T10:05:51.236Z,91.80
2018-08-13T10:08:19.704Z,92.00
2018-08-13T10:10:48.160Z,92.90
2018-08-13T10:13:16.559Z,93.30
2018-08-13T10:15:45.003Z,94.10
2018-08-13T10:18:13.464Z,93.20
2018-08-13T10:20:41.934Z,92.90
2018-08-13T10:23:10.343Z,93.30
2018-08-13T10:25:38.779Z,93.50
2018-08-13T10:28:07.286Z,93.40
2018-08-13T10:30:35.719Z,93.90
2018-08-13T10:33:04.222Z,95.20
2018-08-13T10:35:32.668Z,95.50
2018-08-13T10:38:02.768Z,96.10
2018-08-13T10:40:31.206Z,95.60
2018-08-13T10:42:59.679Z,96.90
2018-08-13T10:45:28.327Z,97.90
2018-08-13T10:47:56.824Z,96.90
2018-08-13T10:50:25.234Z,97.30
2018-08-13T10:52:53.696Z,96.90
2018-08-13T10:55:22.152Z,96.30
2018-08-13T10:57:50.597Z,96.50
2018-08-13T11:00:19.042Z,97.90
2018-08-13T11:02:47.515Z,98.10
2018-08-13T11:05:16.427Z,98.40
2018-08-13T11:07:44.984Z,98.40
2018-08-13T11:10:16.166Z,98.10
2018-08-13T11:12:45.371Z,98.30
2018-08-13T11:15:16.498Z,98.30
2018-08-13T11:17:45.125Z,98.50
2018-08-13T11:20:14.260Z,98.00
2018-08-13T11:22:43.317Z,97.80
2018-08-13T11:25:13.416Z,97.80
2018-08-13T11:27:42.110Z,97.10
2018-08-13T11:30:12.455Z,96.70
2018-08-13T11:32:40.970Z,98.00
2018-08-13T11:35:09.545Z,97.90
2018-08-13T11:37:38.014Z,98.00
2018-08-13T11:40:10.663Z,97.20
2018-08-13T11:42:39.395Z,97.60
2018-08-13T11:45:08.231Z,97.30
2018-08-13T11:47:37.244Z,97.70
2018-08-13T11:50:10.678Z,98.10
2018-08-13T11:52:39.416Z,98.00
2018-08-13T11:55:08.011Z,97.00
2018-08-13T11:57:36.443Z,96.80
2018-08-13T12:00:07.103Z,95.90
2018-08-13T12:02:35.720Z,97.30
2018-08-13T12:05:05.287Z,96.50
2018-08-13T12:07:33.718Z,96.80
2018-08-13T12:10:02.258Z,97.20
2018-08-13T12:12:30.679Z,97.20
2018-08-13T12:14:59.127Z,95.70
2018-08-13T12:17:27.588Z,95.40
2018-08-13T12:20:59.547Z,96.40
2018-08-13T12:23:27.977Z,94.60
2018-08-13T12:25:56.467Z,95.90
2018-08-13T12:28:24.907Z,92.70
2018-08-13T12:30:53.359Z,92.60
2018-08-13T12:33:21.786Z,93.00
2018-08-13T12:35:50.256Z,92.40
2018-08-13T12:38:18.701Z,92.20
2018-08-13T12:40:47.144Z,93.30
2018-08-13T12:43:15.608Z,93.40
2018-08-13T12:45:44.040Z,92.10
2018-08-13T12:48:12.523Z,91.90
2018-08-13T12:50:40.965Z,92.10
2018-08-13T12:53:09.439Z,91.70
2018-08-13T12:55:37.880Z,92.70
2018-08-13T12:58:06.805Z,92.80
2018-08-13T13:00:35.421Z,94.60
2018-08-13T13:03:03.912Z,95.60
2018-08-13T13:05:32.347Z,93.90
2018-08-13T13:08:00.811Z,92.80
2018-08-13T13:10:29.290Z,94.10
2018-08-13T13:12:57.751Z,95.00
2018-08-13T13:15:26.175Z,95.80
2018-08-13T13:17:54.574Z,97.70
2018-08-13T13:20:23.649Z,95.40
2018-08-13T13:22:52.482Z,96.10
2018-08-13T13:25:21.441Z,95.90
2018-08-13T13:27:49.890Z,94.30
2018-08-13T13:30:19.313Z,94.90
2018-08-13T13:32:47.998Z,95.20
2018-08-13T13:35:17.571Z,94.80
2018-08-13T13:37:46.059Z,95.10
2018-08-13T13:40:15.782Z,96.20
2018-08-13T13:42:44.255Z,94.90
2018-08-13T13:45:13.588Z,94.10
2018-08-13T13:47:41.955Z,92.70
2018-08-13T13:50:12.443Z,92.60
2018-08-13T13:52:40.763Z,92.80
2018-08-13T13:55:09.211Z,91.10
2018-08-13T13:57:37.642Z,92.70
2018-08-13T14:00:11.715Z,91.70
2018-08-13T14:02:40.048Z,92.40
2018-08-13T14:05:08.427Z,92.50
2018-08-13T14:07:36.794Z,92.70
2018-08-13T14:10:06.495Z,91.90
2018-08-13T14:12:41.676Z,91.70
2018-08-13T14:15:11.851Z,92.10
2018-08-13T14:17:40.534Z,91.90
2018-08-13T14:20:09.675Z,92.70
2018-08-13T14:22:38.218Z,92.00
2018-08-13T14:25:07.795Z,90.60
2018-08-13T14:27:36.323Z,90.30
2018-08-13T14:30:08.343Z,91.30
2018-08-13T14:32:36.823Z,90.60
2018-08-13T14:35:05.324Z,88.50
2018-08-13T14:37:33.839Z,88.00
2018-08-13T14:40:02.200Z,85.70
2018-08-13T14:42:30.559Z,87.80
2018-08-13T14:44:58.887Z,86.50
2018-08-13T14:47:27.326Z,84.00
2018-08-13T14:49:55.677Z,83.20
2018-08-13T14:52:24.067Z,83.30
2018-08-13T14:54:52.431Z,84.50
2018-08-13T14:57:20.802Z,83.30
2018-08-13T14:59:49.195Z,83.50
2018-08-13T15:02:17.547Z,83.30
2018-08-13T15:04:45.913Z,83.30
2018-08-13T15:07:14.259Z,84.70
2018-08-13T15:09:42.611Z,85.10
2018-08-13T15:12:11.004Z,86.00
2018-08-13T15:14:39.366Z,86.10
2018-08-13T15:17:07.754Z,85.20
2018-08-13T15:19:36.124Z,85.30
2018-08-13T15:22:04.523Z,85.30
2018-08-13T15:24:32.906Z,85.10
2018-08-13T15:27:02.928Z,85.00
2018-08-13T15:29:32.559Z,85.50
2018-08-13T15:32:03.393Z,85.30
2018-08-13T15:34:31.875Z,85.40
2018-08-13T15:37:00.344Z,85.10
2018-08-13T15:39:28.750Z,85.10
2018-08-13T15:41:57.126Z,84.80
2018-08-13T15:44:25.891Z,84.60
2018-08-13T15:46:54.278Z,85.20
2018-08-13T15:49:22.668Z,85.30
2018-08-13T15:51:51.044Z,84.30
2018-08-13T15:54:19.392Z,83.90
2018-08-13T15:56:47.775Z,83.20
2018-08-13T15:59:16.164Z,82.70
2018-08-13T16:01:45.403Z,82.60
2018-08-13T16:04:14.475Z,81.70
2018-08-13T16:06:43.122Z,81.20
2018-08-13T16:09:11.463Z,80.80
2018-08-13T16:11:39.811Z,82.10
2018-08-13T16:14:08.391Z,81.90
2018-08-13T16:16:36.796Z,81.50
2018-08-13T16:19:05.403Z,81.80
2018-08-13T16:21:33.935Z,81.00
2018-08-13T16:24:02.440Z,81.30
2018-08-13T16:26:30.847Z,82.10
2018-08-13T16:28:59.262Z,82.80
2018-08-13T16:31:27.592Z,82.50
2018-08-13T16:33:56.290Z,82.60
2018-08-13T16:36:25.202Z,82.40
2018-08-13T16:38:53.678Z,83.10
2018-08-13T16:41:22.736Z,83.80
2018-08-13T16:43:51.218Z,84.90
2018-08-13T16:46:19.563Z,85.00
2018-08-13T16:48:48.033Z,85.30
2018-08-13T16:51:16.557Z,84.90
2018-08-13T16:53:45.567Z,84.40
2018-08-13T16:56:14.567Z,85.10
2018-08-13T16:58:43.427Z,82.50
2018-08-13T17:01:12.934Z,81.70
2018-08-13T17:03:41.447Z,82.10
2018-08-13T17:06:09.923Z,82.70
2018-08-13T17:08:38.399Z,82.10
2018-08-13T17:11:06.787Z,82.20
2018-08-13T17:13:35.290Z,83.10
2018-08-13T17:16:03.766Z,81.30
2018-08-13T17:18:32.235Z,82.00
2018-08-13T17:21:00.723Z,82.70
2018-08-13T17:23:29.133Z,82.10
2018-08-13T17:25:57.622Z,82.00
2018-08-13T17:28:26.084Z,82.40
2018-08-13T17:30:54.549Z,83.00
2018-08-13T17:33:23.039Z,82.90
2018-08-13T17:35:51.487Z,82.50
2018-08-13T17:38:19.951Z,83.20
2018-08-13T17:40:48.455Z,83.40
2018-08-13T17:43:17.119Z,82.60
2018-08-13T17:45:45.492Z,83.10
2018-08-13T17:48:13.978Z,83.60
2018-08-13T17:50:42.427Z,83.50
2018-08-13T17:53:11.528Z,83.20
2018-08-13T17:55:39.997Z,82.50
2018-08-13T17:58:08.495Z,82.80
2018-08-13T18:00:36.953Z,82.20
2018-08-13T18:03:05.678Z,81.60
2018-08-13T18:05:34.163Z,81.90
2018-08-13T18:08:02.643Z,81.80
2018-08-13T18:10:32.862Z,81.80
2018-08-13T18:13:02.900Z,80.10
2018-08-13T18:15:31.463Z,82.30
2018-08-13T18:17:59.995Z,81.20
2018-08-13T18:20:28.373Z,80.50
2018-08-13T18:22:56.750Z,81.30
2018-08-13T18:25:25.095Z,80.20
2018-08-13T18:27:53.860Z,81.30
2018-08-13T18:30:24.545Z,81.10
2018-08-13T18:32:53.862Z,81.00
2018-08-13T18:35:22.299Z,81.90
2018-08-13T18:37:50.700Z,80.40
2018-08-13T18:40:23.236Z,81.20
2018-08-13T18:42:51.704Z,81.20
2018-08-13T18:45:20.051Z,81.20
2018-08-13T18:47:49.264Z,81.40
2018-08-13T18:50:19.010Z,81.60
2018-08-13T18:52:47.556Z,82.10
2018-08-13T18:55:17.362Z,82.10
2018-08-13T18:57:46.066Z,82.80
2018-08-13T19:00:18.430Z,82.90
2018-08-13T19:02:46.918Z,83.10
2018-08-13T19:05:16.550Z,83.60
2018-08-13T19:07:45.661Z,84.00
2018-08-13T19:10:15.004Z,83.80
2018-08-13T19:12:43.422Z,83.40
2018-08-13T19:15:16.111Z,83.80
2018-08-13T19:17:44.690Z,83.10
2018-08-13T19:20:13.983Z,83.40
2018-08-13T19:22:43.114Z,83.30
2018-08-13T19:25:20.667Z,83.20
2018-08-13T19:27:49.103Z,83.20
2018-08-13T19:30:18.435Z,83.40
2018-08-13T19:32:47.738Z,83.90
2018-08-13T19:35:16.284Z,84.30
2018-08-13T19:37:45.098Z,84.10
2018-08-13T19:40:15.644Z,83.90
2018-08-13T19:42:44.740Z,84.10
2018-08-13T19:45:14.518Z,84.20
2018-08-13T19:47:43.218Z,84.60
2018-08-13T19:50:11.934Z,85.30
2018-08-13T19:52:41.926Z,84.40
2018-08-13T19:55:10.771Z,85.00
2018-08-13T19:57:39.700Z,85.20
2018-08-13T20:00:12.977Z,85.30
2018-08-13T20:02:41.430Z,84.80
2018-08-13T20:05:10.047Z,84.60
2018-08-13T20:07:39.028Z,84.80
2018-08-13T20:10:10.227Z,84.70
2018-08-13T20:12:38.599Z,85.20
2018-08-13T20:15:07.040Z,85.70
2018-08-13T20:17:36.715Z,86.00
2018-08-13T20:20:09.181Z,86.70
2018-08-13T20:22:37.759Z,87.00
2018-08-13T20:25:07.546Z,86.90
2018-08-13T20:27:36.089Z,86.90
2018-08-13T20:30:05.784Z,87.40
2018-08-13T20:32:34.188Z,87.10
2018-08-13T20:35:02.672Z,88.30
2018-08-13T20:37:31.071Z,87.80
2018-08-13T20:39:59.536Z,88.30
2018-08-13T20:42:28.086Z,88.00
2018-08-13T20:44:56.487Z,88.10
2018-08-13T20:47:25.170Z,88.10
2018-08-13T20:49:53.663Z,88.10
2018-08-13T20:52:23.773Z,88.50
2018-08-13T20:54:52.191Z,88.60
2018-08-13T20:57:20.572Z,88.40
2018-08-13T20:59:49.788Z,87.60
2018-08-13T21:02:18.131Z,87.50
2018-08-13T21:04:46.507Z,87.80
2018-08-13T21:07:14.858Z,88.00
2018-08-13T21:09:43.431Z,88.50
2018-08-13T21:12:11.810Z,88.70
2018-08-13T21:14:40.204Z,88.50
2018-08-13T21:17:08.578Z,88.60
2018-08-13T21:19:37.107Z,88.80
2018-08-13T21:22:05.495Z,89.50
2018-08-13T21:24:37.284Z,89.30
2018-08-13T21:27:05.782Z,89.40
2018-08-13T21:29:34.147Z,89.50
2018-08-13T21:32:02.528Z,89.70
2018-08-13T21:34:30.895Z,90.10
2018-08-13T21:36:59.811Z,90.80
2018-08-13T21:39:28.162Z,91.80
2018-08-13T21:41:56.563Z,92.60
2018-08-13T21:44:24.935Z,92.80
2018-08-13T21:46:53.388Z,93.10
2018-08-13T21:49:21.832Z,92.80
2018-08-13T21:51:50.252Z,91.90
2018-08-13T21:54:18.743Z,92.60
2018-08-13T21:56:47.183Z,93.30
2018-08-13T21:59:15.641Z,93.40
2018-08-13T22:01:47.368Z,93.50
2018-08-13T22:04:17.283Z,93.80
2018-08-13T22:06:46.011Z,94.20
2018-08-13T22:09:14.410Z,94.40
2018-08-13T22:11:42.878Z,94.70
2018-08-13T22:14:11.444Z,94.70
2018-08-13T22:16:39.931Z,94.60
2018-08-13T22:19:09.338Z,94.40
2018-08-13T22:21:37.839Z,94.70
2018-08-13T22:24:17.418Z,94.30
2018-08-13T22:26:45.872Z,94.50
2018-08-13T22:29:14.281Z,94.50
2018-08-13T22:31:42.900Z,94.10
2018-08-13T22:34:11.374Z,93.60
2018-08-13T22:36:39.891Z,93.90
2018-08-13T22:39:08.975Z,94.40
2018-08-13T22:41:37.598Z,94.70
2018-08-13T22:44:06.088Z,95.10
2018-08-13T22:46:34.933Z,94.90
2018-08-13T22:49:03.461Z,94.80
2018-08-13T22:51:31.887Z,95.10
2018-08-13T22:54:00.327Z,94.80
2018-08-13T22:56:28.879Z,94.70
2018-08-13T22:58:57.235Z,95.10
2018-08-13T23:01:25.631Z,95.10
2018-08-13T23:03:54.235Z,94.90
2018-08-13T23:06:22.587Z,94.60
2018-08-13T23:08:50.947Z,94.20
2018-08-13T23:11:19.360Z,93.90
2018-08-13T23:13:47.720Z,94.40
2018-08-13T23:16:16.112Z,94.00
2018-08-13T23:18:44.479Z,93.80
2018-08-13T23:21:12.850Z,93.70
2018-08-13T23:23:41.187Z,93.40
2018-08-13T23:26:09.544Z,93.60
2018-08-13T23:28:37.887Z,93.80
2018-08-13T23:31:06.320Z,93.90
2018-08-13T23:33:34.659Z,94.00
2018-08-13T23:36:03.083Z,94.10
2018-08-13T23:38:31.422Z,94.60
2018-08-13T23:40:59.801Z,94.20
2018-08-13T23:43:28.175Z,94.10
2018-08-13T23:45:56.568Z,94.50
2018-08-13T23:48:24.992Z,94.50
2018-08-13T23:50:53.412Z,93.90
2018-08-13T23:53:21.796Z,93.90
2018-08-13T23:55:50.169Z,93.80
2018-08-13T23:58:18.562Z,93.60
